createdAt,value
2023-06-18T00:00:10.050Z,9.65
2023-06-18T00:02:38.079Z,10.07
2023-06-18T00:05:06.621Z,9.45
2023-06-18T00:07:34.747Z,8.82
2023-06-18T00:10:05.446Z,10.48
2023-06-18T00:12:33.519Z,10.40
2023-06-18T00:15:01.616Z,11.65
2023-06-18T00:17:29.805Z,10.95
2023-06-18T00:19:57.884Z,12.75
2023-06-18T00:22:25.912Z,12.35
2023-06-18T00:24:53.985Z,11.52
2023-06-18T00:27:23.850Z,13.43
2023-06-18T00:29:52.183Z,12.07
2023-06-18T00:32:20.254Z,14.30
2023-06-18T00:34:48.428Z,15.52
2023-06-18T00:37:17.129Z,15.13
2023-06-18T00:39:45.176Z,10.50
2023-06-18T00:42:13.151Z,12.57
2023-06-18T00:44:42.538Z,11.60
2023-06-18T00:47:12.958Z,12.63
2023-06-18T00:49:41.796Z,16.60
2023-06-18T00:52:10.556Z,11.52
2023-06-18T00:54:38.441Z,12.30
2023-06-18T00:57:09.424Z,11.75
2023-06-18T00:59:38.649Z,13.25
2023-06-18T01:02:09.416Z,12.00
2023-06-18T01:04:38.605Z,13.18
2023-06-18T01:07:14.147Z,11.75
2023-06-18T01:09:43.172Z,14.97
2023-06-18T01:12:11.569Z,12.80
2023-06-18T01:14:40.543Z,12.05
2023-06-18T01:17:10.148Z,16.42
2023-06-18T01:19:45.257Z,10.80
2023-06-18T01:22:20.120Z,15.37
2023-06-18T01:24:51.018Z,14.50
2023-06-18T01:27:22.860Z,13.70
2023-06-18T01:29:51.574Z,16.42
2023-06-18T01:32:22.332Z,14.87
2023-06-18T01:34:54.949Z,14.18
2023-06-18T01:37:30.257Z,14.57
2023-06-18T01:40:00.965Z,15.13
2023-06-18T01:42:28.980Z,16.05
2023-06-18T01:44:59.774Z,14.27
2023-06-18T01:47:29.386Z,12.70
2023-06-18T01:49:57.389Z,17.23
2023-06-18T01:52:25.712Z,13.02
2023-06-18T01:54:53.665Z,15.98
2023-06-18T01:57:21.759Z,15.63
2023-06-18T01:59:49.726Z,13.90
2023-06-18T02:02:17.880Z,12.95
2023-06-18T02:04:48.692Z,14.80
2023-06-18T02:07:16.766Z,13.05
2023-06-18T02:09:44.727Z,12.30
2023-06-18T02:12:13.296Z,13.90
2023-06-18T02:14:41.275Z,17.90
2023-06-18T02:17:09.273Z,14.38
2023-06-18T02:19:37.514Z,19.70
2023-06-18T02:22:07.155Z,14.25
2023-06-18T02:24:35.652Z,16.17
2023-06-18T02:27:03.734Z,16.75
2023-06-18T02:29:31.752Z,14.80
2023-06-18T02:31:59.699Z,13.48
2023-06-18T02:34:28.869Z,14.50
2023-06-18T02:36:57.089Z,16.05
2023-06-18T02:39:26.487Z,19.85
2023-06-18T02:41:54.451Z,14.48
2023-06-18T02:44:22.461Z,17.30
2023-06-18T02:46:50.497Z,15.40
2023-06-18T02:49:18.665Z,13.27
2023-06-18T02:51:46.648Z,14.20
2023-06-18T02:54:14.730Z,15.80
2023-06-18T02:56:44.418Z,13.23
2023-06-18T02:59:12.397Z,20.73
2023-06-18T03:01:40.610Z,14.07
2023-06-18T03:04:08.657Z,15.87
2023-06-18T03:06:36.948Z,14.20
2023-06-18T03:09:05.293Z,16.07
2023-06-18T03:11:33.269Z,15.27
2023-06-18T03:14:02.643Z,18.23
2023-06-18T03:16:31.607Z,13.63
2023-06-18T03:18:59.818Z,15.90
2023-06-18T03:21:28.037Z,17.67
2023-06-18T03:23:56.033Z,16.43
2023-06-18T03:26:24.186Z,14.73
2023-06-18T03:28:52.252Z,15.80
2023-06-18T03:31:22.711Z,16.05
2023-06-18T03:33:50.809Z,16.80
2023-06-18T03:36:19.418Z,15.97
2023-06-18T03:38:47.724Z,15.17
2023-06-18T03:41:15.665Z,16.97
2023-06-18T03:43:43.631Z,18.57
2023-06-18T03:46:11.649Z,16.93
2023-06-18T03:48:42.746Z,22.03
2023-06-18T03:51:10.792Z,14.83
2023-06-18T03:53:39.393Z,16.77
2023-06-18T03:56:08.219Z,22.97
2023-06-18T03:58:36.290Z,17.20
2023-06-18T04:01:04.397Z,14.03
2023-06-18T04:03:32.541Z,15.63
2023-06-18T04:06:02.005Z,19.33
2023-06-18T04:08:30.008Z,18.70
2023-06-18T04:10:58.126Z,12.03
2023-06-18T04:13:26.150Z,15.83
2023-06-18T04:15:54.080Z,14.33
2023-06-18T04:18:22.230Z,17.37
2023-06-18T04:20:50.384Z,15.47
2023-06-18T04:23:19.749Z,15.10
2023-06-18T04:25:47.756Z,16.87
2023-06-18T04:28:15.869Z,13.77
2023-06-18T04:30:43.877Z,14.97
2023-06-18T04:33:11.908Z,15.60
2023-06-18T04:35:39.915Z,13.83
2023-06-18T04:38:08.235Z,14.60
2023-06-18T04:40:37.647Z,12.73
2023-06-18T04:43:05.645Z,12.33
2023-06-18T04:45:33.734Z,12.47
2023-06-18T04:48:04.014Z,18.00
2023-06-18T04:50:32.025Z,15.23
2023-06-18T04:53:00.495Z,13.30
2023-06-18T04:55:28.959Z,14.10
2023-06-18T04:57:58.376Z,15.53
2023-06-18T05:00:27.794Z,15.87
2023-06-18T05:02:56.031Z,13.93
2023-06-18T05:05:24.225Z,16.10
2023-06-18T05:07:53.149Z,18.60
2023-06-18T05:10:21.594Z,16.30
2023-06-18T05:12:50.021Z,18.57
2023-06-18T05:15:19.546Z,20.53
2023-06-18T05:17:47.640Z,17.20
2023-06-18T05:20:15.989Z,20.57
2023-06-18T05:22:43.931Z,20.43
2023-06-18T05:25:11.878Z,18.30
2023-06-18T05:27:39.878Z,20.63
2023-06-18T05:30:09.280Z,17.90
2023-06-18T05:32:38.697Z,15.63
2023-06-18T05:35:07.165Z,19.50
2023-06-18T05:37:35.325Z,16.53
2023-06-18T05:40:07.480Z,16.50
2023-06-18T05:42:37.218Z,16.43
2023-06-18T05:45:06.132Z,17.23
2023-06-18T05:47:34.185Z,18.83
2023-06-18T05:50:03.649Z,15.03
2023-06-18T05:52:31.700Z,16.43
2023-06-18T05:54:59.639Z,16.13
2023-06-18T05:57:27.590Z,19.10
2023-06-18T05:59:55.522Z,18.03
2023-06-18T06:02:23.536Z,14.80
2023-06-18T06:04:51.510Z,18.50
2023-06-18T06:07:21.633Z,19.73
2023-06-18T06:09:49.940Z,19.90
2023-06-18T06:12:17.935Z,15.07
2023-06-18T06:14:45.975Z,14.73
2023-06-18T06:17:13.922Z,15.57
2023-06-18T06:19:41.896Z,14.03
2023-06-18T06:22:09.906Z,20.17
2023-06-18T06:24:39.327Z,15.97
2023-06-18T06:27:07.610Z,15.40
2023-06-18T06:29:36.062Z,14.53
2023-06-18T06:32:04.211Z,18.40
2023-06-18T06:34:32.169Z,17.38
2023-06-18T06:37:00.155Z,17.10
2023-06-18T06:39:28.163Z,16.63
2023-06-18T06:41:57.666Z,15.25
2023-06-18T06:44:25.619Z,16.50
2023-06-18T06:46:53.630Z,15.50
2023-06-18T06:49:21.729Z,16.77
2023-06-18T06:51:49.777Z,13.98
2023-06-18T06:54:19.026Z,16.57
2023-06-18T06:56:47.024Z,14.43
2023-06-18T06:59:16.501Z,17.08
2023-06-18T07:01:46.057Z,13.55
2023-06-18T07:04:14.085Z,13.57
2023-06-18T07:06:42.162Z,12.98
2023-06-18T07:09:10.183Z,12.85
2023-06-18T07:11:39.052Z,12.77
2023-06-18T07:14:07.138Z,13.43
2023-06-18T07:16:36.517Z,13.10
2023-06-18T07:19:05.103Z,13.32
2023-06-18T07:21:33.158Z,14.38
2023-06-18T07:24:01.096Z,14.18
2023-06-18T07:26:29.114Z,14.98
2023-06-18T07:28:57.132Z,11.65
2023-06-18T07:31:25.121Z,12.65
2023-06-18T07:33:54.560Z,14.30
2023-06-18T07:36:22.540Z,11.90
2023-06-18T07:38:50.670Z,12.55
2023-06-18T07:41:19.071Z,13.63
2023-06-18T07:43:47.169Z,11.38
2023-06-18T07:46:15.262Z,13.27
2023-06-18T07:48:43.268Z,12.38
2023-06-18T07:51:12.679Z,9.77
2023-06-18T07:53:41.232Z,13.05
2023-06-18T07:56:09.316Z,9.60
2023-06-18T07:58:37.404Z,9.65
2023-06-18T08:01:05.733Z,8.90
2023-06-18T08:03:33.850Z,7.03
2023-06-18T08:06:01.900Z,7.38
2023-06-18T08:08:31.209Z,8.23
2023-06-18T08:10:59.241Z,9.93
2023-06-18T08:13:27.236Z,6.20
2023-06-18T08:15:55.331Z,6.05
2023-06-18T08:18:23.431Z,6.15
2023-06-18T08:20:51.414Z,6.95
2023-06-18T08:23:19.381Z,6.63
2023-06-18T08:25:48.725Z,4.32
2023-06-18T08:28:16.730Z,8.68
2023-06-18T08:30:44.726Z,4.68
2023-06-18T08:33:12.999Z,3.55
2023-06-18T08:35:41.072Z,3.05
2023-06-18T08:38:09.145Z,3.85
2023-06-18T08:40:38.591Z,4.40
2023-06-18T08:43:11.694Z,13.15
2023-06-18T08:45:39.844Z,6.13
2023-06-18T08:48:19.407Z,4.18
2023-06-18T08:51:00.738Z,4.57
2023-06-18T08:53:32.634Z,6.57
2023-06-18T08:56:01.325Z,5.38
2023-06-18T08:58:30.674Z,3.63
2023-06-18T09:00:58.671Z,4.82
2023-06-18T09:03:26.720Z,6.50
2023-06-18T09:05:54.843Z,4.13
2023-06-18T09:08:22.826Z,4.47
2023-06-18T09:10:50.997Z,5.28
2023-06-18T09:13:18.984Z,4.72
2023-06-18T09:15:48.342Z,8.02
2023-06-18T09:18:16.423Z,5.10
2023-06-18T09:20:44.381Z,7.07
2023-06-18T09:23:12.402Z,5.00
2023-06-18T09:25:40.558Z,6.07
2023-06-18T09:28:08.542Z,5.20
2023-06-18T09:30:36.634Z,5.97
2023-06-18T09:33:06.015Z,6.88
2023-06-18T09:35:34.058Z,5.60
2023-06-18T09:38:07.935Z,5.07
2023-06-18T09:40:35.919Z,4.75
2023-06-18T09:43:03.963Z,7.15
2023-06-18T09:45:32.210Z,7.15
2023-06-18T09:48:00.571Z,7.18
2023-06-18T09:50:30.200Z,6.10
2023-06-18T09:52:58.601Z,7.30
2023-06-18T09:55:30.661Z,9.40
2023-06-18T09:57:59.553Z,10.10
2023-06-18T10:00:27.721Z,8.75
2023-06-18T10:02:56.539Z,8.35
2023-06-18T10:05:24.739Z,6.43
2023-06-18T10:07:54.261Z,7.38
2023-06-18T10:10:22.521Z,5.22
2023-06-18T10:12:51.247Z,5.00
2023-06-18T10:15:19.859Z,4.43
2023-06-18T10:17:50.168Z,5.15
2023-06-18T10:20:18.255Z,4.95
2023-06-18T10:22:47.440Z,7.13
2023-06-18T10:25:17.153Z,4.82
2023-06-18T10:27:45.327Z,6.55
2023-06-18T10:30:14.249Z,4.57
2023-06-18T10:32:43.427Z,4.93
2023-06-18T10:35:12.353Z,4.60
2023-06-18T10:37:40.899Z,5.32
2023-06-18T10:40:09.980Z,4.82
2023-06-18T10:42:39.402Z,8.63
2023-06-18T10:45:14.547Z,7.30
2023-06-18T10:47:42.910Z,4.95
2023-06-18T10:50:13.137Z,4.18
2023-06-18T10:52:41.541Z,6.10
2023-06-18T10:55:09.780Z,4.55
2023-06-18T10:57:39.781Z,4.13
2023-06-18T11:00:29.929Z,5.68
2023-06-18T11:02:59.900Z,4.50
2023-06-18T11:05:44.354Z,4.72
2023-06-18T11:08:13.088Z,4.65
2023-06-18T11:10:41.778Z,8.88
2023-06-18T11:13:11.971Z,6.65
2023-06-18T11:15:54.624Z,6.10
2023-06-18T11:18:23.590Z,7.45
2023-06-18T11:20:51.687Z,6.30
2023-06-18T11:23:19.939Z,4.57
2023-06-18T11:25:48.427Z,7.68
2023-06-18T11:28:17.841Z,4.93
2023-06-18T11:30:49.118Z,5.70
2023-06-18T11:33:23.224Z,4.68
2023-06-18T11:35:51.632Z,10.00
2023-06-18T11:38:20.264Z,5.43
2023-06-18T11:40:52.477Z,11.57
2023-06-18T11:43:22.061Z,14.18
2023-06-18T11:45:50.542Z,19.77
2023-06-18T11:48:18.729Z,5.93
2023-06-18T11:50:48.732Z,4.50
2023-06-18T11:53:16.781Z,6.80
2023-06-18T11:55:44.753Z,10.23
2023-06-18T11:58:13.258Z,6.47
2023-06-18T12:00:42.578Z,7.00
2023-06-18T12:03:10.680Z,6.22
2023-06-18T12:05:38.720Z,5.85
2023-06-18T12:08:11.261Z,17.02
2023-06-18T12:10:39.695Z,6.20
2023-06-18T12:13:11.518Z,5.38
2023-06-18T12:15:41.365Z,4.70
2023-06-18T12:18:27.800Z,5.32
2023-06-18T12:20:56.170Z,4.30
2023-06-18T12:23:24.243Z,5.75
2023-06-18T12:25:52.213Z,4.10
2023-06-18T12:28:24.140Z,6.22
2023-06-18T12:30:53.683Z,3.95
2023-06-18T12:33:23.733Z,6.35
2023-06-18T12:35:55.446Z,4.20
2023-06-18T12:38:24.060Z,5.32
2023-06-18T12:40:53.521Z,4.20
2023-06-18T12:43:23.736Z,4.15
2023-06-18T12:45:52.995Z,3.90
2023-06-18T12:48:24.619Z,4.60
2023-06-18T12:50:53.640Z,8.63
2023-06-18T12:53:24.065Z,4.10
2023-06-18T12:55:54.828Z,4.32
2023-06-18T12:58:23.829Z,4.35
2023-06-18T13:00:53.702Z,4.18
2023-06-18T13:03:23.788Z,4.68
2023-06-18T13:05:51.902Z,4.88
2023-06-18T13:08:22.095Z,4.22
2023-06-18T13:10:50.621Z,6.45
2023-06-18T13:13:19.243Z,5.47
2023-06-18T13:15:47.802Z,5.22
2023-06-18T13:18:16.333Z,5.97
2023-06-18T13:20:46.557Z,6.10
2023-06-18T13:23:14.694Z,6.15
2023-06-18T13:25:42.953Z,4.63
2023-06-18T13:28:11.133Z,8.52
2023-06-18T13:30:39.183Z,4.55
2023-06-18T13:33:07.485Z,6.95
2023-06-18T13:35:35.517Z,7.93
2023-06-18T13:38:05.182Z,9.23
2023-06-18T13:40:33.165Z,9.38
2023-06-18T13:43:01.652Z,7.13
2023-06-18T13:45:30.618Z,9.60
2023-06-18T13:47:58.633Z,7.32
2023-06-18T13:50:27.487Z,5.72
2023-06-18T13:52:55.534Z,8.95
2023-06-18T13:55:25.437Z,9.60
2023-06-18T13:57:53.778Z,14.73
2023-06-18T14:00:22.349Z,8.35
2023-06-18T14:02:50.624Z,11.75
2023-06-18T14:05:19.196Z,8.68
2023-06-18T14:07:47.870Z,7.70
2023-06-18T14:10:15.887Z,4.93
2023-06-18T14:12:45.339Z,16.55
2023-06-18T14:15:14.597Z,27.60
2023-06-18T14:17:47.281Z,21.35
2023-06-18T14:20:17.467Z,46.58
2023-06-18T14:22:46.142Z,23.98
2023-06-18T14:25:15.924Z,9.68
2023-06-18T14:27:48.564Z,25.70
2023-06-18T14:30:19.315Z,23.23
2023-06-18T14:32:47.596Z,9.32
2023-06-18T14:35:16.835Z,23.88
2023-06-18T14:37:44.809Z,9.70
2023-06-18T14:40:14.532Z,4.47
2023-06-18T14:42:43.502Z,5.53
2023-06-18T14:45:12.968Z,5.15
2023-06-18T14:47:42.216Z,6.22
2023-06-18T14:50:11.565Z,7.80
2023-06-18T14:52:39.566Z,7.53
2023-06-18T14:55:08.354Z,4.30
2023-06-18T14:57:36.932Z,4.38
2023-06-18T15:00:05.616Z,3.78
2023-06-18T15:02:35.248Z,4.35
2023-06-18T15:05:06.188Z,6.55
2023-06-18T15:07:34.739Z,5.97
2023-06-18T15:10:02.776Z,7.22
2023-06-18T15:12:30.797Z,3.88
2023-06-18T15:14:59.039Z,5.53
2023-06-18T15:17:27.150Z,4.28
2023-06-18T15:19:57.684Z,4.78
2023-06-18T15:22:26.030Z,5.05
2023-06-18T15:24:54.429Z,7.10
2023-06-18T15:27:22.558Z,6.20
2023-06-18T15:29:50.575Z,5.15
2023-06-18T15:32:18.993Z,5.30
2023-06-18T15:34:48.479Z,8.68
2023-06-18T15:37:18.173Z,8.05
2023-06-18T15:39:48.254Z,7.40
2023-06-18T15:42:16.468Z,5.88
2023-06-18T15:44:44.528Z,9.55
2023-06-18T15:47:12.743Z,8.85
2023-06-18T15:49:41.255Z,8.27
2023-06-18T15:52:09.521Z,7.75
2023-06-18T15:54:38.916Z,10.82
2023-06-18T15:57:20.427Z,7.25
2023-06-18T15:59:48.490Z,7.97
2023-06-18T16:02:16.686Z,7.93
2023-06-18T16:04:44.897Z,6.82
2023-06-18T16:07:12.893Z,13.95
2023-06-18T16:09:42.457Z,10.48
2023-06-18T16:12:11.551Z,6.90
2023-06-18T16:14:39.716Z,7.35
2023-06-18T16:17:08.089Z,9.20
2023-06-18T16:19:36.082Z,9.38
2023-06-18T16:22:04.326Z,8.88
2023-06-18T16:24:32.660Z,7.70
2023-06-18T16:27:04.359Z,10.10
2023-06-18T16:29:34.083Z,9.02
2023-06-18T16:32:02.095Z,10.73
2023-06-18T16:34:30.094Z,10.05
2023-06-18T16:36:58.070Z,12.25
2023-06-18T16:39:27.115Z,11.88
2023-06-18T16:41:55.153Z,17.08
2023-06-18T16:44:24.839Z,11.80
2023-06-18T16:46:53.729Z,9.88
2023-06-18T16:49:21.844Z,13.90
2023-06-18T16:51:49.835Z,12.18
2023-06-18T16:54:17.893Z,12.43
2023-06-18T16:56:49.601Z,13.50
2023-06-18T16:59:18.161Z,15.03
2023-06-18T17:01:47.669Z,16.30
2023-06-18T17:04:15.652Z,25.35
2023-06-18T17:06:43.641Z,19.17
2023-06-18T17:09:12.186Z,17.02
2023-06-18T17:11:41.080Z,16.07
2023-06-18T17:14:09.044Z,17.77
2023-06-18T17:16:37.108Z,18.38
2023-06-18T17:19:06.877Z,19.60
2023-06-18T17:21:34.886Z,11.90
2023-06-18T17:24:03.441Z,13.05
2023-06-18T17:26:32.789Z,14.87
2023-06-18T17:29:00.879Z,15.97
2023-06-18T17:31:28.897Z,15.17
2023-06-18T17:33:56.991Z,17.17
2023-06-18T17:36:26.410Z,16.63
2023-06-18T17:38:54.461Z,17.70
2023-06-18T17:41:22.497Z,15.10
2023-06-18T17:43:50.551Z,13.90
2023-06-18T17:46:18.859Z,19.23
2023-06-18T17:48:48.848Z,15.17
2023-06-18T17:51:17.204Z,12.63
2023-06-18T17:53:46.907Z,16.10
2023-06-18T17:56:14.911Z,14.03
2023-06-18T17:58:43.044Z,14.17
2023-06-18T18:01:12.322Z,19.13
2023-06-18T18:03:43.966Z,22.90
2023-06-18T18:06:12.650Z,22.53
2023-06-18T18:08:40.681Z,15.23
2023-06-18T18:11:10.058Z,14.87
2023-06-18T18:13:38.062Z,11.93
2023-06-18T18:16:06.260Z,15.47
2023-06-18T18:18:34.361Z,14.27
2023-06-18T18:21:02.395Z,17.63
2023-06-18T18:23:30.461Z,11.87
2023-06-18T18:26:09.915Z,15.37
2023-06-18T18:28:41.361Z,14.63
2023-06-18T18:31:09.447Z,16.30
2023-06-18T18:33:37.488Z,16.23
2023-06-18T18:36:06.510Z,16.07
2023-06-18T18:38:34.836Z,13.53
2023-06-18T18:41:02.837Z,14.33
2023-06-18T18:43:31.503Z,12.88
2023-06-18T18:46:01.134Z,12.75
2023-06-18T18:48:29.157Z,11.85
2023-06-18T18:50:58.303Z,11.48
2023-06-18T18:53:26.758Z,15.67
2023-06-18T18:55:56.477Z,14.47
2023-06-18T18:58:24.980Z,14.67
2023-06-18T19:00:53.037Z,14.07
2023-06-18T19:03:22.570Z,19.42
2023-06-18T19:05:52.188Z,15.50
2023-06-18T19:08:20.291Z,15.47
2023-06-18T19:10:48.348Z,12.87
2023-06-18T19:13:16.464Z,16.70
2023-06-18T19:15:44.656Z,14.03
2023-06-18T19:18:12.624Z,18.03
2023-06-18T19:20:42.045Z,13.67
2023-06-18T19:23:10.198Z,11.83
2023-06-18T19:25:38.338Z,14.23
2023-06-18T19:28:06.637Z,14.43
2023-06-18T19:30:35.162Z,16.33
2023-06-18T19:33:04.435Z,13.73
2023-06-18T19:35:32.496Z,13.83
2023-06-18T19:38:01.844Z,13.63
2023-06-18T19:40:29.869Z,14.63
2023-06-18T19:42:57.824Z,16.30
2023-06-18T19:45:26.082Z,14.37
2023-06-18T19:47:54.071Z,14.83
2023-06-18T19:50:23.360Z,14.20
2023-06-18T19:52:51.752Z,11.87
2023-06-18T19:55:21.408Z,13.17
2023-06-18T19:57:49.375Z,16.37
2023-06-18T20:00:18.512Z,15.87
2023-06-18T20:02:46.862Z,12.70
2023-06-18T20:05:15.162Z,17.00
2023-06-18T20:07:43.165Z,16.30
2023-06-18T20:10:11.599Z,13.93
2023-06-18T20:12:43.306Z,11.90
2023-06-18T20:15:12.444Z,17.30
2023-06-18T20:17:40.441Z,12.47
2023-06-18T20:20:09.879Z,12.50
2023-06-18T20:22:38.043Z,15.23
2023-06-18T20:25:06.601Z,12.33
2023-06-18T20:27:34.774Z,13.90
2023-06-18T20:30:04.474Z,14.27
2023-06-18T20:32:32.444Z,11.00
2023-06-18T20:35:01.517Z,13.73
2023-06-18T20:37:29.527Z,14.17
2023-06-18T20:39:57.508Z,14.40
2023-06-18T20:42:26.221Z,11.00
2023-06-18T20:44:54.291Z,17.80
2023-06-18T20:47:24.122Z,17.63
2023-06-18T20:49:52.240Z,15.83
2023-06-18T20:52:20.279Z,19.67
2023-06-18T20:54:48.249Z,17.40
2023-06-18T20:57:16.288Z,13.57
2023-06-18T20:59:47.654Z,13.47
2023-06-18T21:02:15.709Z,18.57
2023-06-18T21:04:45.147Z,17.30
2023-06-18T21:07:13.121Z,13.87
2023-06-18T21:09:41.145Z,17.73
2023-06-18T21:12:09.920Z,15.07
2023-06-18T21:14:37.980Z,12.83
2023-06-18T21:17:06.882Z,15.37
2023-06-18T21:19:35.148Z,13.63
2023-06-18T21:22:04.799Z,15.60
2023-06-18T21:24:32.982Z,21.67
2023-06-18T21:27:00.995Z,15.73
2023-06-18T21:29:29.004Z,15.20
2023-06-18T21:31:59.085Z,19.03
2023-06-18T21:34:27.522Z,17.53
2023-06-18T21:36:58.240Z,18.40
2023-06-18T21:39:27.968Z,15.73
2023-06-18T21:41:58.582Z,23.07
2023-06-18T21:44:26.819Z,15.27
2023-06-18T21:46:54.802Z,18.53
2023-06-18T21:49:22.848Z,17.77
2023-06-18T21:51:50.846Z,18.90
2023-06-18T21:54:18.863Z,19.83
2023-06-18T21:56:48.219Z,17.87
2023-06-18T21:59:16.276Z,20.07
2023-06-18T22:01:44.307Z,14.10
2023-06-18T22:04:12.302Z,16.57
2023-06-18T22:06:40.262Z,20.60
2023-06-18T22:09:08.275Z,19.73
2023-06-18T22:11:36.296Z,18.10
2023-06-18T22:14:05.699Z,15.33
2023-06-18T22:16:33.980Z,23.73
2023-06-18T22:19:11.113Z,21.93
2023-06-18T22:21:39.223Z,18.97
2023-06-18T22:24:07.570Z,17.87
2023-06-18T22:26:35.632Z,19.50
2023-06-18T22:29:05.088Z,21.60
2023-06-18T22:31:33.210Z,14.60
2023-06-18T22:34:01.486Z,15.17
2023-06-18T22:36:29.484Z,14.90
2023-06-18T22:38:57.485Z,20.30
2023-06-18T22:41:25.503Z,18.53
2023-06-18T22:43:53.516Z,15.53
2023-06-18T22:46:23.681Z,21.03
2023-06-18T22:48:51.873Z,18.87
2023-06-18T22:51:19.904Z,22.63
2023-06-18T22:53:47.852Z,23.00
2023-06-18T22:56:15.913Z,18.37
2023-06-18T22:58:43.964Z,14.20
2023-06-18T23:01:11.977Z,19.97
2023-06-18T23:03:41.520Z,18.23
2023-06-18T23:06:09.863Z,14.43
2023-06-18T23:08:38.274Z,16.60
2023-06-18T23:11:06.260Z,16.03
2023-06-18T23:13:34.285Z,17.47
2023-06-18T23:16:02.241Z,16.80
2023-06-18T23:18:30.301Z,18.13
2023-06-18T23:21:00.983Z,18.17
2023-06-18T23:23:29.968Z,22.90
2023-06-18T23:25:58.000Z,19.50
2023-06-18T23:28:26.287Z,19.93
2023-06-18T23:30:54.426Z,16.43
2023-06-18T23:33:22.392Z,20.23
2023-06-18T23:35:52.702Z,22.80
2023-06-18T23:38:22.243Z,22.20
2023-06-18T23:40:50.173Z,20.70
2023-06-18T23:43:18.168Z,17.40
2023-06-18T23:45:46.186Z,24.47
2023-06-18T23:48:14.195Z,18.57
2023-06-18T23:50:43.295Z,23.80
2023-06-18T23:53:11.414Z,17.93
2023-06-18T23:55:41.157Z,23.03
2023-06-18T23:58:09.680Z,17.27
